createdAt,value
2018-09-16T00:02:04.112Z,18.79
2018-09-16T00:04:32.753Z,18.77
2018-09-16T00:07:01.449Z,18.74
2018-09-16T00:09:30.131Z,18.74
2018-09-16T00:11:58.788Z,18.77
2018-09-16T00:14:27.678Z,18.75
2018-09-16T00:16:56.377Z,18.73
2018-09-16T00:19:25.064Z,18.75
2018-09-16T00:21:53.756Z,18.77
2018-09-16T00:24:22.393Z,18.80
2018-09-16T00:26:51.070Z,18.80
2018-09-16T00:29:19.734Z,18.78
2018-09-16T00:31:52.537Z,18.77
2018-09-16T00:34:21.162Z,18.78
2018-09-16T00:36:49.824Z,18.80
2018-09-16T00:39:18.547Z,18.84
2018-09-16T00:41:47.228Z,18.87
2018-09-16T00:44:15.894Z,18.90
2018-09-16T00:46:44.667Z,18.80
2018-09-16T00:49:13.312Z,18.74
2018-09-16T00:51:42.834Z,18.72
2018-09-16T00:54:11.511Z,18.76
2018-09-16T00:56:40.155Z,18.74
2018-09-16T00:59:08.823Z,18.60
2018-09-16T01:01:37.470Z,18.64
2018-09-16T01:04:06.262Z,18.70
2018-09-16T01:06:37.486Z,18.74
2018-09-16T01:09:10.622Z,18.74
2018-09-16T01:11:39.318Z,18.71
2018-09-16T01:14:08.790Z,18.69
2018-09-16T01:16:38.379Z,17.42
2018-09-16T01:19:07.594Z,18.67
2018-09-16T01:21:36.789Z,18.71
2018-09-16T01:24:05.862Z,18.65
2018-09-16T01:26:34.810Z,18.62
2018-09-16T01:29:03.465Z,18.61
2018-09-16T01:31:32.137Z,18.61
2018-09-16T01:34:00.828Z,18.54
2018-09-16T01:36:29.491Z,18.52
2018-09-16T01:38:58.295Z,18.52
2018-09-16T01:41:26.987Z,18.51
2018-09-16T01:43:55.661Z,18.58
2018-09-16T01:46:24.330Z,18.60
2018-09-16T01:48:53.078Z,18.25
2018-09-16T01:51:21.735Z,18.40
2018-09-16T01:53:50.412Z,18.38
2018-09-16T01:56:19.062Z,18.38
2018-09-16T01:58:47.747Z,18.38
2018-09-16T02:01:16.374Z,18.40
2018-09-16T02:03:45.073Z,18.39
2018-09-16T02:06:13.742Z,18.35
2018-09-16T02:08:42.386Z,18.38
2018-09-16T02:11:11.083Z,18.35
2018-09-16T02:13:39.748Z,18.36
2018-09-16T02:16:08.388Z,18.46
2018-09-16T02:18:37.012Z,18.56
2018-09-16T02:21:05.689Z,18.45
2018-09-16T02:23:34.378Z,18.40
2018-09-16T02:26:03.088Z,18.33
2018-09-16T02:28:31.747Z,18.29
2018-09-16T02:31:00.413Z,18.33
2018-09-16T02:33:29.088Z,18.31
2018-09-16T02:35:57.767Z,18.09
2018-09-16T02:38:26.404Z,17.95
2018-09-16T02:40:55.163Z,18.01
2018-09-16T02:43:24.048Z,17.84
2018-09-16T02:45:52.730Z,17.66
2018-09-16T02:48:21.387Z,17.57
2018-09-16T02:50:50.098Z,17.55
2018-09-16T02:53:18.744Z,17.46
2018-09-16T02:55:47.430Z,17.36
2018-09-16T02:58:16.160Z,17.18
2018-09-16T03:00:44.923Z,17.19
2018-09-16T03:03:13.598Z,17.35
2018-09-16T03:05:48.288Z,17.61
2018-09-16T03:08:17.351Z,17.80
2018-09-16T03:10:46.256Z,17.88
2018-09-16T03:13:15.150Z,18.00
2018-09-16T03:15:43.822Z,17.74
2018-09-16T03:18:12.484Z,18.01
2018-09-16T03:20:41.197Z,18.01
2018-09-16T03:23:09.876Z,17.97
2018-09-16T03:25:38.524Z,17.96
2018-09-16T03:28:07.212Z,17.92
2018-09-16T03:30:35.835Z,17.92
2018-09-16T03:33:04.523Z,17.90
2018-09-16T03:35:33.195Z,17.89
2018-09-16T03:38:01.930Z,17.87
2018-09-16T03:40:30.551Z,17.85
2018-09-16T03:42:59.218Z,17.80
2018-09-16T03:45:27.877Z,17.76
2018-09-16T03:47:56.486Z,17.76
2018-09-16T03:50:25.200Z,17.75
2018-09-16T03:52:53.959Z,17.75
2018-09-16T03:55:22.614Z,17.71
2018-09-16T03:57:51.287Z,17.67
2018-09-16T04:00:19.939Z,17.67
2018-09-16T04:02:48.562Z,17.69
2018-09-16T04:05:19.705Z,17.69
2018-09-16T04:07:49.416Z,17.65
2018-09-16T04:10:18.133Z,17.70
2018-09-16T04:12:46.976Z,17.70
2018-09-16T04:15:15.711Z,17.78
2018-09-16T04:17:44.355Z,17.89
2018-09-16T04:20:13.012Z,17.93
2018-09-16T04:22:41.734Z,18.01
2018-09-16T04:25:10.420Z,18.12
2018-09-16T04:27:39.078Z,18.24
2018-09-16T04:30:08.118Z,18.41
2018-09-16T04:32:37.152Z,18.57
2018-09-16T04:35:06.134Z,18.72
2018-09-16T04:37:38.322Z,18.85
2018-09-16T04:40:07.328Z,19.02
2018-09-16T04:42:35.980Z,19.26
2018-09-16T04:45:04.757Z,19.46
2018-09-16T04:47:33.413Z,19.67
2018-09-16T04:50:02.179Z,19.71
2018-09-16T04:52:30.754Z,19.83
2018-09-16T04:54:59.372Z,19.95
2018-09-16T04:57:27.999Z,20.05
2018-09-16T04:59:56.660Z,20.28
2018-09-16T05:02:25.300Z,20.66
2018-09-16T05:04:53.954Z,20.73
2018-09-16T05:07:22.596Z,20.90
2018-09-16T05:09:51.211Z,19.04
2018-09-16T05:12:19.876Z,21.08
2018-09-16T05:14:48.553Z,21.09
2018-09-16T05:17:17.234Z,21.42
2018-09-16T05:19:45.942Z,21.50
2018-09-16T05:22:14.626Z,21.61
2018-09-16T05:24:43.384Z,21.82
2018-09-16T05:27:12.027Z,22.05
2018-09-16T05:29:40.696Z,22.32
2018-09-16T05:32:09.367Z,22.29
2018-09-16T05:34:38.126Z,22.46
2018-09-16T05:37:07.111Z,22.57
2018-09-16T05:39:35.849Z,22.56
2018-09-16T05:42:05.448Z,22.65
2018-09-16T05:44:34.187Z,22.64
2018-09-16T05:47:02.831Z,22.84
2018-09-16T05:49:31.496Z,23.26
2018-09-16T05:52:00.170Z,23.12
2018-09-16T05:54:28.916Z,22.77
2018-09-16T05:56:57.541Z,22.75
2018-09-16T05:59:26.226Z,23.11
2018-09-16T06:01:54.912Z,23.24
2018-09-16T06:04:23.576Z,23.44
2018-09-16T06:06:52.280Z,23.69
2018-09-16T06:09:20.897Z,23.39
2018-09-16T06:11:49.517Z,23.24
2018-09-16T06:14:18.163Z,23.49
2018-09-16T06:16:46.806Z,23.28
2018-09-16T06:19:15.503Z,23.41
2018-09-16T06:21:44.138Z,23.63
2018-09-16T06:24:12.766Z,23.73
2018-09-16T06:26:41.430Z,23.68
2018-09-16T06:29:10.079Z,23.97
2018-09-16T06:31:38.726Z,23.88
2018-09-16T06:34:07.425Z,23.52
2018-09-16T06:36:36.110Z,23.63
2018-09-16T06:39:07.188Z,23.85
2018-09-16T06:41:35.851Z,23.72
2018-09-16T06:44:04.554Z,23.77
2018-09-16T06:46:33.260Z,24.02
2018-09-16T06:49:01.998Z,24.02
2018-09-16T06:51:30.711Z,24.10
2018-09-16T06:53:59.485Z,24.39
2018-09-16T06:56:28.200Z,24.29
2018-09-16T06:58:57.154Z,24.07
2018-09-16T07:01:26.076Z,24.09
2018-09-16T07:03:55.160Z,24.43
2018-09-16T07:06:23.805Z,25.17
2018-09-16T07:08:52.448Z,25.10
2018-09-16T07:11:21.115Z,24.68
2018-09-16T07:13:49.781Z,24.37
2018-09-16T07:16:18.446Z,22.49
2018-09-16T07:18:47.099Z,24.93
2018-09-16T07:21:15.762Z,24.77
2018-09-16T07:23:44.434Z,24.50
2018-09-16T07:26:13.103Z,24.78
2018-09-16T07:28:41.787Z,24.96
2018-09-16T07:31:10.480Z,24.53
2018-09-16T07:33:39.144Z,24.73
2018-09-16T07:36:07.772Z,24.25
2018-09-16T07:38:36.409Z,24.08
2018-09-16T07:41:05.041Z,24.57
2018-09-16T07:43:33.702Z,25.01
2018-09-16T07:46:02.421Z,24.79
2018-09-16T07:48:31.074Z,25.00
2018-09-16T07:50:59.772Z,24.84
2018-09-16T07:53:28.397Z,25.13
2018-09-16T07:55:57.057Z,24.28
2018-09-16T07:58:25.748Z,23.82
2018-09-16T08:00:54.410Z,23.04
2018-09-16T08:03:23.089Z,22.98
2018-09-16T08:05:51.775Z,22.74
2018-09-16T08:08:20.574Z,22.59
2018-09-16T08:10:49.353Z,22.53
2018-09-16T08:13:18.038Z,22.42
2018-09-16T08:15:46.667Z,22.36
2018-09-16T08:18:15.359Z,22.39
2018-09-16T08:20:44.053Z,22.18
2018-09-16T08:23:12.791Z,22.13
2018-09-16T08:25:41.532Z,22.34
2018-09-16T08:28:10.228Z,23.04
2018-09-16T08:30:38.888Z,23.62
2018-09-16T08:33:07.571Z,23.36
2018-09-16T08:35:36.239Z,22.94
2018-09-16T08:38:04.941Z,23.88
2018-09-16T08:40:34.060Z,24.27
2018-09-16T08:43:02.816Z,24.42
2018-09-16T08:45:31.959Z,23.64
2018-09-16T08:48:00.650Z,24.33
2018-09-16T08:50:29.677Z,25.25
2018-09-16T08:52:58.799Z,25.81
2018-09-16T08:55:27.839Z,26.03
2018-09-16T08:57:56.680Z,25.65
2018-09-16T09:00:25.864Z,26.10
2018-09-16T09:02:54.784Z,25.83
2018-09-16T09:05:23.899Z,25.64
2018-09-16T09:07:56.495Z,25.82
2018-09-16T09:10:25.200Z,26.23
2018-09-16T09:12:53.958Z,26.63
2018-09-16T09:15:23.385Z,26.63
2018-09-16T09:17:52.594Z,26.75
2018-09-16T09:20:21.344Z,27.06
2018-09-16T09:22:50.257Z,27.13
2018-09-16T09:25:19.285Z,26.94
2018-09-16T09:27:47.975Z,27.23
2018-09-16T09:30:21.512Z,27.36
2018-09-16T09:32:50.200Z,27.25
2018-09-16T09:35:19.147Z,27.18
2018-09-16T09:37:48.860Z,27.12
2018-09-16T09:40:17.875Z,27.85
2018-09-16T09:42:46.983Z,27.77
2018-09-16T09:45:15.731Z,27.51
2018-09-16T09:47:44.650Z,27.95
2018-09-16T09:50:13.364Z,27.69
2018-09-16T09:52:42.827Z,28.09
2018-09-16T09:55:11.825Z,28.51
2018-09-16T09:57:41.224Z,28.25
2018-09-16T10:00:12.788Z,27.82
2018-09-16T10:02:41.512Z,28.23
2018-09-16T10:05:10.767Z,28.70
2018-09-16T10:07:39.679Z,28.93
2018-09-16T10:10:09.361Z,28.97
2018-09-16T10:12:38.425Z,28.02
2018-09-16T10:15:07.327Z,28.08
2018-09-16T10:17:36.619Z,28.28
2018-09-16T10:20:05.669Z,28.54
2018-09-16T10:22:34.790Z,28.58
2018-09-16T10:25:04.769Z,28.54
2018-09-16T10:28:07.440Z,28.79
2018-09-16T10:30:43.383Z,29.11
2018-09-16T10:33:12.088Z,29.90
2018-09-16T10:35:41.261Z,29.97
2018-09-16T10:38:11.191Z,28.76
2018-09-16T10:40:40.207Z,28.06
2018-09-16T10:43:08.937Z,27.67
2018-09-16T10:45:38.086Z,27.66
2018-09-16T10:48:06.998Z,27.80
2018-09-16T10:50:36.047Z,27.97
2018-09-16T10:53:05.299Z,28.09
2018-09-16T10:55:34.184Z,26.92
2018-09-16T10:58:03.028Z,26.22
2018-09-16T11:00:31.706Z,25.83
2018-09-16T11:03:00.801Z,24.46
2018-09-16T11:05:29.624Z,25.86
2018-09-16T11:07:58.397Z,25.59
2018-09-16T11:10:27.151Z,25.51
2018-09-16T11:12:55.837Z,26.15
2018-09-16T11:15:24.503Z,26.22
2018-09-16T11:17:53.458Z,26.10
2018-09-16T11:20:22.128Z,26.19
2018-09-16T11:22:50.856Z,25.86
2018-09-16T11:25:19.558Z,27.03
2018-09-16T11:28:15.588Z,28.11
2018-09-16T11:30:44.464Z,27.88
2018-09-16T11:33:28.085Z,27.38
2018-09-16T11:35:56.816Z,28.44
2018-09-16T11:38:25.513Z,27.81
2018-09-16T11:40:54.236Z,26.90
2018-09-16T11:43:23.006Z,27.80
2018-09-16T11:45:52.040Z,28.53
2018-09-16T11:48:40.708Z,27.66
2018-09-16T11:51:10.216Z,28.48
2018-09-16T11:53:39.363Z,29.03
2018-09-16T11:56:08.134Z,28.69
2018-09-16T11:58:36.911Z,28.32
2018-09-16T12:01:18.679Z,27.34
2018-09-16T12:03:47.400Z,26.91
2018-09-16T12:06:16.175Z,27.87
2018-09-16T12:08:45.119Z,28.74
2018-09-16T12:11:14.085Z,28.92
2018-09-16T12:13:42.872Z,28.79
2018-09-16T12:16:11.693Z,28.61
2018-09-16T12:18:40.536Z,28.53
2018-09-16T12:21:09.716Z,28.85
2018-09-16T12:23:42.656Z,24.91
2018-09-16T12:26:12.399Z,29.41
2018-09-16T12:28:41.540Z,29.24
2018-09-16T12:31:10.412Z,28.51
2018-09-16T12:33:39.243Z,28.41
2018-09-16T12:36:09.351Z,28.53
2018-09-16T12:38:38.216Z,29.07
2018-09-16T12:41:07.073Z,29.21
2018-09-16T12:43:37.066Z,29.08
2018-09-16T12:46:06.351Z,28.60
2018-09-16T12:48:35.424Z,28.23
2018-09-16T12:51:04.148Z,28.22
2018-09-16T12:53:34.272Z,27.84
2018-09-16T12:56:02.951Z,27.48
2018-09-16T12:58:31.603Z,27.04
2018-09-16T13:01:01.215Z,27.11
2018-09-16T13:03:29.899Z,27.00
2018-09-16T13:05:58.575Z,26.93
2018-09-16T13:08:27.302Z,26.76
2018-09-16T13:10:56.370Z,26.53
2018-09-16T13:13:25.080Z,26.47
2018-09-16T13:15:53.761Z,26.38
2018-09-16T13:18:22.466Z,26.08
2018-09-16T13:20:51.173Z,25.91
2018-09-16T13:23:22.845Z,25.70
2018-09-16T13:25:51.846Z,25.62
2018-09-16T13:28:20.695Z,25.63
2018-09-16T13:30:49.643Z,25.66
2018-09-16T13:33:18.266Z,25.54
2018-09-16T13:35:47.113Z,25.33
2018-09-16T13:38:16.056Z,25.29
2018-09-16T13:40:44.763Z,25.23
2018-09-16T13:43:13.601Z,25.16
2018-09-16T13:45:42.537Z,25.11
2018-09-16T13:48:11.268Z,25.00
2018-09-16T13:50:49.971Z,24.93
2018-09-16T13:53:18.751Z,24.93
2018-09-16T13:55:47.507Z,25.06
2018-09-16T13:58:20.400Z,25.19
2018-09-16T14:00:49.191Z,25.43
2018-09-16T14:03:17.857Z,25.62
2018-09-16T14:05:46.594Z,25.65
2018-09-16T14:08:18.452Z,25.40
2018-09-16T14:10:48.391Z,25.38
2018-09-16T14:13:17.650Z,25.46
2018-09-16T14:15:46.375Z,25.45
2018-09-16T14:18:15.168Z,25.30
2018-09-16T14:20:44.277Z,25.29
2018-09-16T14:23:13.037Z,25.23
2018-09-16T14:25:41.778Z,25.22
2018-09-16T14:28:10.473Z,25.29
2018-09-16T14:30:39.158Z,25.24
2018-09-16T14:33:07.970Z,25.15
2018-09-16T14:35:37.617Z,25.17
2018-09-16T14:38:06.337Z,25.14
2018-09-16T14:40:35.274Z,25.13
2018-09-16T14:43:03.974Z,25.12
2018-09-16T14:45:32.692Z,25.02
2018-09-16T14:48:01.379Z,24.97
2018-09-16T14:50:30.079Z,24.96
2018-09-16T14:52:58.788Z,24.90
2018-09-16T14:55:27.724Z,24.89
2018-09-16T14:57:56.705Z,24.86
2018-09-16T15:00:27.823Z,24.72
2018-09-16T15:02:56.652Z,24.66
2018-09-16T15:05:25.406Z,24.60
2018-09-16T15:07:54.286Z,24.58
2018-09-16T15:10:37.527Z,23.49
2018-09-16T15:13:06.685Z,24.53
2018-09-16T15:15:35.376Z,24.50
2018-09-16T15:18:04.117Z,24.41
2018-09-16T15:20:32.883Z,24.36
2018-09-16T15:23:01.660Z,24.35
2018-09-16T15:25:30.372Z,24.30
2018-09-16T15:27:59.114Z,24.25
2018-09-16T15:30:27.846Z,24.29
2018-09-16T15:32:56.817Z,24.33
2018-09-16T15:35:26.522Z,24.38
2018-09-16T15:37:55.723Z,24.42
2018-09-16T15:40:24.432Z,24.38
2018-09-16T15:42:53.431Z,24.37
2018-09-16T15:45:22.124Z,24.38
2018-09-16T15:47:50.853Z,24.34
2018-09-16T15:50:20.161Z,24.28
2018-09-16T15:52:49.169Z,24.27
2018-09-16T15:55:17.946Z,24.10
2018-09-16T15:57:46.568Z,23.97
2018-09-16T16:00:15.341Z,23.84
2018-09-16T16:02:44.163Z,23.76
2018-09-16T16:05:13.094Z,23.72
2018-09-16T16:07:41.788Z,23.64
2018-09-16T16:10:10.871Z,23.58
2018-09-16T16:12:39.604Z,23.51
2018-09-16T16:15:08.345Z,23.46
2018-09-16T16:17:37.026Z,23.32
2018-09-16T16:20:05.803Z,23.28
2018-09-16T16:22:34.508Z,23.29
2018-09-16T16:25:03.759Z,23.28
2018-09-16T16:27:33.425Z,23.22
2018-09-16T16:30:05.266Z,23.22
2018-09-16T16:32:33.943Z,23.17
2018-09-16T16:35:03.618Z,23.14
2018-09-16T16:37:32.377Z,23.11
2018-09-16T16:40:01.124Z,23.06
2018-09-16T16:42:29.891Z,23.02
2018-09-16T16:44:58.657Z,23.00
2018-09-16T16:47:27.320Z,22.96
2018-09-16T16:49:56.073Z,22.91
2018-09-16T16:52:24.742Z,22.83
2018-09-16T16:54:53.450Z,22.74
2018-09-16T16:57:22.120Z,22.82
2018-09-16T16:59:50.773Z,22.76
2018-09-16T17:02:19.411Z,22.75
2018-09-16T17:04:48.147Z,22.71
2018-09-16T17:07:16.886Z,22.67
2018-09-16T17:09:45.539Z,22.65
2018-09-16T17:12:14.209Z,22.61
2018-09-16T17:14:42.878Z,22.56
2018-09-16T17:17:11.613Z,22.52
2018-09-16T17:19:40.299Z,22.53
2018-09-16T17:22:09.021Z,22.50
2018-09-16T17:24:37.687Z,22.48
2018-09-16T17:27:06.471Z,22.45
2018-09-16T17:29:35.133Z,22.45
2018-09-16T17:32:04.037Z,22.40
2018-09-16T17:34:32.832Z,22.33
2018-09-16T17:37:01.541Z,22.32
2018-09-16T17:39:30.222Z,22.30
2018-09-16T17:41:58.924Z,22.27
2018-09-16T17:44:27.664Z,22.16
2018-09-16T17:46:56.706Z,22.15
2018-09-16T17:49:25.780Z,22.10
2018-09-16T17:51:54.516Z,22.06
2018-09-16T17:54:23.553Z,22.05
2018-09-16T17:56:52.436Z,22.08
2018-09-16T17:59:21.170Z,22.08
2018-09-16T18:01:49.867Z,22.07
2018-09-16T18:04:18.570Z,22.03
2018-09-16T18:06:47.363Z,21.99
2018-09-16T18:09:16.063Z,21.99
2018-09-16T18:11:44.932Z,21.91
2018-09-16T18:14:13.646Z,21.91
2018-09-16T18:16:42.620Z,21.88
2018-09-16T18:19:11.282Z,20.69
2018-09-16T18:21:39.938Z,21.68
2018-09-16T18:24:08.762Z,21.66
2018-09-16T18:26:37.664Z,21.63
2018-09-16T18:29:06.472Z,21.61
2018-09-16T18:31:35.193Z,21.56
2018-09-16T18:34:04.730Z,21.55
2018-09-16T18:36:33.581Z,21.50
2018-09-16T18:39:02.333Z,21.42
2018-09-16T18:41:31.010Z,21.39
2018-09-16T18:43:59.680Z,21.39
2018-09-16T18:46:28.386Z,21.31
2018-09-16T18:48:57.084Z,21.29
2018-09-16T18:51:25.792Z,21.27
2018-09-16T18:53:54.499Z,21.25
2018-09-16T18:56:23.224Z,21.24
2018-09-16T18:58:52.490Z,21.22
2018-09-16T19:01:21.208Z,21.18
2018-09-16T19:03:50.218Z,21.11
2018-09-16T19:06:18.882Z,21.10
2018-09-16T19:08:47.539Z,21.07
2018-09-16T19:11:16.261Z,21.00
2018-09-16T19:13:45.299Z,20.97
2018-09-16T19:16:14.112Z,20.94
2018-09-16T19:18:42.853Z,20.91
2018-09-16T19:21:11.774Z,20.88
2018-09-16T19:23:41.345Z,20.85
2018-09-16T19:26:10.783Z,20.83
2018-09-16T19:28:39.549Z,20.79
2018-09-16T19:31:09.664Z,20.75
2018-09-16T19:33:38.556Z,20.67
2018-09-16T19:36:07.540Z,20.66
2018-09-16T19:38:36.268Z,20.68
2018-09-16T19:41:24.050Z,20.70
2018-09-16T19:43:52.719Z,20.71
2018-09-16T19:46:21.472Z,20.66
2018-09-16T19:48:50.224Z,20.60
2018-09-16T19:51:19.203Z,20.65
2018-09-16T19:53:48.233Z,20.65
2018-09-16T19:56:16.991Z,20.67
2018-09-16T19:58:45.694Z,20.65
2018-09-16T20:01:14.379Z,20.63
2018-09-16T20:03:43.095Z,20.53
2018-09-16T20:06:11.794Z,20.54
2018-09-16T20:08:40.488Z,20.51
2018-09-16T20:11:09.475Z,20.50
2018-09-16T20:13:38.150Z,20.41
2018-09-16T20:16:06.828Z,20.41
2018-09-16T20:18:35.572Z,20.36
2018-09-16T20:21:04.719Z,20.35
2018-09-16T20:23:33.452Z,20.32
2018-09-16T20:26:02.154Z,20.30
2018-09-16T20:28:30.875Z,20.29
2018-09-16T20:30:59.716Z,20.29
2018-09-16T20:33:28.390Z,20.28
2018-09-16T20:35:57.047Z,20.19
2018-09-16T20:38:25.789Z,20.16
2018-09-16T20:40:54.423Z,20.11
2018-09-16T20:43:23.091Z,20.08
2018-09-16T20:45:51.759Z,20.01
2018-09-16T20:48:20.415Z,19.97
2018-09-16T20:50:49.055Z,19.92
2018-09-16T20:53:17.696Z,19.88
2018-09-16T20:55:46.874Z,19.82
2018-09-16T20:58:15.597Z,19.75
2018-09-16T21:00:44.351Z,19.69
2018-09-16T21:03:13.077Z,19.62
2018-09-16T21:05:41.793Z,19.56
2018-09-16T21:08:10.441Z,19.46
2018-09-16T21:10:39.096Z,19.40
2018-09-16T21:13:07.820Z,19.41
2018-09-16T21:15:36.459Z,19.37
2018-09-16T21:18:05.146Z,19.32
2018-09-16T21:20:33.798Z,19.26
2018-09-16T21:23:02.443Z,19.28
2018-09-16T21:25:31.125Z,19.23
2018-09-16T21:27:59.805Z,18.38
2018-09-16T21:30:28.490Z,19.19
2018-09-16T21:32:57.123Z,19.12
2018-09-16T21:35:25.795Z,19.16
2018-09-16T21:37:54.475Z,19.07
2018-09-16T21:40:23.149Z,18.97
2018-09-16T21:42:51.803Z,18.87
2018-09-16T21:45:20.562Z,18.80
2018-09-16T21:47:49.317Z,18.84
2018-09-16T21:50:18.062Z,18.81
2018-09-16T21:52:46.774Z,18.75
2018-09-16T21:55:15.593Z,18.68
2018-09-16T21:57:44.300Z,18.65
2018-09-16T22:00:15.697Z,18.60
2018-09-16T22:02:44.404Z,18.48
2018-09-16T22:05:13.202Z,18.47
2018-09-16T22:07:41.843Z,18.47
2018-09-16T22:10:10.530Z,18.38
2018-09-16T22:12:39.263Z,18.25
2018-09-16T22:15:07.967Z,18.23
2018-09-16T22:17:36.722Z,18.26
2018-09-16T22:20:05.438Z,18.29
2018-09-16T22:22:34.111Z,18.31
2018-09-16T22:25:02.750Z,18.18
2018-09-16T22:27:31.381Z,17.95
2018-09-16T22:30:00.074Z,17.82
2018-09-16T22:32:28.753Z,17.76
2018-09-16T22:34:57.408Z,17.71
2018-09-16T22:37:26.137Z,17.61
2018-09-16T22:39:54.791Z,17.50
2018-09-16T22:42:23.479Z,17.41
2018-09-16T22:44:52.151Z,17.14
2018-09-16T22:47:20.848Z,17.00
2018-09-16T22:49:49.540Z,16.87
2018-09-16T22:52:18.512Z,16.68
2018-09-16T22:54:47.214Z,16.54
2018-09-16T22:57:15.878Z,16.45
2018-09-16T22:59:44.789Z,16.32
2018-09-16T23:02:13.557Z,16.19
2018-09-16T23:04:42.260Z,16.01
2018-09-16T23:07:11.364Z,15.72
2018-09-16T23:09:40.003Z,15.68
2018-09-16T23:12:08.634Z,15.65
2018-09-16T23:14:37.265Z,15.66
2018-09-16T23:17:06.042Z,15.69
2018-09-16T23:19:34.701Z,15.78
2018-09-16T23:22:03.403Z,15.86
2018-09-16T23:24:32.127Z,15.78
2018-09-16T23:27:00.778Z,15.75
2018-09-16T23:29:29.491Z,15.70
2018-09-16T23:31:58.186Z,15.76
2018-09-16T23:34:26.880Z,15.72
2018-09-16T23:36:55.568Z,15.79
2018-09-16T23:39:24.247Z,15.73
2018-09-16T23:41:53.057Z,15.72
2018-09-16T23:44:21.795Z,15.78
2018-09-16T23:46:50.454Z,15.71
2018-09-16T23:49:19.276Z,15.67
2018-09-16T23:51:47.932Z,15.57
2018-09-16T23:54:16.612Z,15.57
2018-09-16T23:56:45.291Z,15.58
2018-09-16T23:59:13.965Z,15.56
